createdAt,value
2023-04-15T00:01:01.509Z,10.72
2023-04-15T00:03:30.144Z,10.71
2023-04-15T00:05:58.922Z,10.69
2023-04-15T00:08:27.482Z,10.68
2023-04-15T00:10:55.640Z,10.68
2023-04-15T00:13:23.797Z,10.68
2023-04-15T00:15:52.382Z,10.67
2023-04-15T00:18:20.360Z,10.67
2023-04-15T00:20:48.855Z,10.67
2023-04-15T00:23:18.182Z,10.66
2023-04-15T00:25:46.490Z,10.64
2023-04-15T00:28:14.557Z,10.63
2023-04-15T00:30:44.562Z,10.62
2023-04-15T00:33:13.960Z,10.61
2023-04-15T00:35:42.137Z,10.60
2023-04-15T00:38:10.392Z,10.58
2023-04-15T00:40:38.623Z,10.55
2023-04-15T00:43:07.186Z,10.53
2023-04-15T00:45:35.722Z,10.51
2023-04-15T00:48:04.686Z,10.48
2023-04-15T00:50:33.476Z,10.47
2023-04-15T00:53:01.653Z,10.45
2023-04-15T00:55:29.810Z,10.43
2023-04-15T00:57:58.181Z,10.41
2023-04-15T01:00:27.065Z,10.40
2023-04-15T01:02:55.166Z,10.39
2023-04-15T01:05:23.727Z,10.37
2023-04-15T01:07:51.992Z,10.35
2023-04-15T01:10:19.945Z,10.32
2023-04-15T01:12:48.172Z,10.30
2023-04-15T01:15:16.400Z,10.26
2023-04-15T01:17:44.821Z,10.23
2023-04-15T01:20:13.448Z,10.21
2023-04-15T01:22:41.780Z,10.18
2023-04-15T01:25:13.263Z,10.15
2023-04-15T01:27:42.684Z,10.13
2023-04-15T01:30:11.620Z,10.11
2023-04-15T01:32:39.661Z,10.08
2023-04-15T01:35:07.973Z,10.06
2023-04-15T01:37:36.931Z,10.02
2023-04-15T01:40:05.531Z,9.98
2023-04-15T01:42:34.103Z,9.94
2023-04-15T01:45:02.818Z,9.91
2023-04-15T01:47:31.298Z,9.88
2023-04-15T01:49:59.278Z,9.84
2023-04-15T01:52:27.339Z,9.80
2023-04-15T01:54:55.275Z,9.75
2023-04-15T01:57:23.417Z,9.72
2023-04-15T01:59:54.360Z,9.68
2023-04-15T02:02:22.963Z,9.66
2023-04-15T02:04:51.341Z,9.63
2023-04-15T02:07:20.959Z,9.62
2023-04-15T02:09:48.985Z,9.59
2023-04-15T02:12:17.083Z,9.56
2023-04-15T02:14:46.306Z,9.55
2023-04-15T02:17:14.221Z,9.53
2023-04-15T02:19:44.698Z,9.51
2023-04-15T02:22:18.705Z,9.50
2023-04-15T02:24:47.897Z,9.48
2023-04-15T02:27:17.366Z,9.47
2023-04-15T02:29:46.065Z,9.45
2023-04-15T02:32:14.640Z,9.44
2023-04-15T02:34:43.030Z,9.41
2023-04-15T02:37:12.565Z,9.39
2023-04-15T02:39:40.680Z,9.38
2023-04-15T02:42:08.743Z,9.38
2023-04-15T02:44:38.153Z,9.36
2023-04-15T02:47:07.721Z,9.35
2023-04-15T02:49:35.883Z,9.35
2023-04-15T02:52:04.066Z,9.34
2023-04-15T02:54:34.301Z,9.33
2023-04-15T02:57:04.098Z,9.32
2023-04-15T02:59:32.324Z,9.32
2023-04-15T03:02:57.358Z,9.31
2023-04-15T03:05:44.611Z,9.30
2023-04-15T03:08:14.911Z,9.30
2023-04-15T03:10:42.870Z,9.30
2023-04-15T03:13:11.399Z,9.29
2023-04-15T03:15:40.081Z,9.30
2023-04-15T03:18:08.232Z,9.30
2023-04-15T03:20:36.638Z,9.29
2023-04-15T03:23:05.347Z,9.29
2023-04-15T03:25:33.435Z,9.30
2023-04-15T03:28:01.580Z,9.30
2023-04-15T03:30:29.684Z,9.30
2023-04-15T03:32:57.939Z,9.31
2023-04-15T03:35:27.120Z,9.32
2023-04-15T03:37:57.480Z,9.32
2023-04-15T03:40:26.700Z,9.32
2023-04-15T03:42:54.793Z,9.33
2023-04-15T03:45:22.829Z,9.33
2023-04-15T03:47:51.244Z,9.34
2023-04-15T03:50:19.422Z,9.35
2023-04-15T03:52:48.290Z,9.34
2023-04-15T03:55:17.652Z,9.34
2023-04-15T03:57:46.089Z,9.35
2023-04-15T04:00:14.246Z,9.35
2023-04-15T04:02:42.317Z,9.35
2023-04-15T04:05:10.860Z,9.35
2023-04-15T04:07:38.881Z,9.35
2023-04-15T04:10:07.305Z,9.35
2023-04-15T04:12:35.424Z,9.35
2023-04-15T04:15:03.940Z,9.36
2023-04-15T04:17:31.988Z,9.35
2023-04-15T04:20:00.211Z,9.35
2023-04-15T04:22:28.295Z,9.35
2023-04-15T04:24:56.842Z,9.35
2023-04-15T04:27:25.571Z,9.36
2023-04-15T04:29:53.480Z,9.35
2023-04-15T04:32:21.931Z,9.34
2023-04-15T04:34:50.145Z,9.35
2023-04-15T04:37:18.304Z,9.35
2023-04-15T04:39:46.290Z,9.35
2023-04-15T04:42:14.459Z,9.34
2023-04-15T04:44:42.933Z,9.34
2023-04-15T04:47:11.588Z,9.34
2023-04-15T04:49:39.861Z,9.35
2023-04-15T04:52:08.007Z,9.35
2023-04-15T04:54:35.993Z,9.36
2023-04-15T04:57:05.082Z,9.35
2023-04-15T04:59:33.355Z,9.35
2023-04-15T05:02:01.581Z,9.35
2023-04-15T05:04:29.694Z,9.35
2023-04-15T05:06:58.506Z,9.36
2023-04-15T05:09:26.680Z,9.35
2023-04-15T05:11:54.657Z,9.36
2023-04-15T05:14:23.403Z,9.36
2023-04-15T05:16:51.584Z,9.36
2023-04-15T05:19:19.603Z,9.36
2023-04-15T05:21:47.596Z,9.37
2023-04-15T05:24:15.727Z,9.37
2023-04-15T05:26:44.057Z,9.37
2023-04-15T05:29:12.123Z,9.37
2023-04-15T05:31:40.234Z,9.37
2023-04-15T05:34:08.715Z,9.38
2023-04-15T05:36:36.839Z,9.37
2023-04-15T05:39:04.982Z,9.37
2023-04-15T05:41:33.207Z,9.38
2023-04-15T05:44:01.652Z,9.38
2023-04-15T05:46:29.623Z,9.39
2023-04-15T05:48:57.847Z,9.40
2023-04-15T05:51:26.599Z,9.41
2023-04-15T05:53:54.648Z,9.42
2023-04-15T05:56:22.819Z,9.43
2023-04-15T05:58:53.367Z,9.43
2023-04-15T06:01:22.437Z,9.43
2023-04-15T06:03:51.390Z,9.43
2023-04-15T06:06:20.639Z,9.43
2023-04-15T06:08:48.473Z,9.42
2023-04-15T06:11:16.488Z,9.42
2023-04-15T06:13:44.743Z,9.42
2023-04-15T06:16:12.695Z,9.42
2023-04-15T06:18:40.811Z,9.41
2023-04-15T06:21:08.973Z,9.41
2023-04-15T06:23:37.244Z,9.41
2023-04-15T06:26:05.515Z,9.40
2023-04-15T06:28:33.592Z,9.41
2023-04-15T06:31:02.126Z,9.40
2023-04-15T06:33:30.847Z,9.40
2023-04-15T06:35:59.234Z,9.40
2023-04-15T06:38:27.135Z,9.40
2023-04-15T06:40:55.574Z,9.41
2023-04-15T06:43:23.714Z,9.41
2023-04-15T06:45:51.850Z,9.42
2023-04-15T06:48:19.983Z,9.43
2023-04-15T06:50:48.360Z,9.43
2023-04-15T06:53:16.354Z,9.44
2023-04-15T06:55:45.002Z,9.44
2023-04-15T06:58:15.405Z,9.44
2023-04-15T07:00:43.564Z,9.46
2023-04-15T07:03:13.281Z,9.46
2023-04-15T07:05:41.871Z,9.47
2023-04-15T07:08:09.812Z,9.48
2023-04-15T07:10:38.265Z,9.49
2023-04-15T07:13:07.530Z,9.49
2023-04-15T07:15:35.856Z,9.49
2023-04-15T07:18:04.376Z,9.50
2023-04-15T07:20:32.656Z,9.50
2023-04-15T07:23:00.694Z,9.51
2023-04-15T07:25:28.748Z,9.51
2023-04-15T07:27:57.174Z,9.52
2023-04-15T07:30:25.286Z,9.52
2023-04-15T07:32:53.483Z,9.53
2023-04-15T07:35:21.856Z,9.53
2023-04-15T07:37:49.949Z,9.54
2023-04-15T07:40:18.348Z,9.55
2023-04-15T07:42:48.595Z,9.55
2023-04-15T07:45:17.005Z,9.57
2023-04-15T07:47:45.006Z,9.57
2023-04-15T07:50:13.135Z,9.59
2023-04-15T07:52:43.182Z,9.60
2023-04-15T07:55:11.677Z,9.61
2023-04-15T07:57:39.744Z,9.62
2023-04-15T08:00:10.594Z,9.63
2023-04-15T08:02:41.950Z,9.64
2023-04-15T08:05:11.009Z,9.64
2023-04-15T08:07:39.027Z,9.65
2023-04-15T08:10:10.696Z,9.66
2023-04-15T08:12:44.936Z,9.68
2023-04-15T09:34:38.271Z,10.08
2023-04-15T09:37:08.118Z,10.08
2023-04-15T09:39:50.366Z,10.08
2023-04-15T09:42:27.500Z,10.08
2023-04-15T09:44:55.589Z,10.07
2023-04-15T09:47:33.051Z,10.08
2023-04-15T09:50:02.525Z,10.07
2023-04-15T09:52:32.169Z,10.07
2023-04-15T09:55:01.092Z,10.07
2023-04-15T09:57:36.921Z,10.08
2023-04-15T10:00:08.420Z,10.10
2023-04-15T10:02:40.902Z,10.09
2023-04-15T10:05:14.991Z,10.10
2023-04-15T10:07:43.765Z,10.10
2023-04-15T10:10:16.276Z,10.11
2023-04-15T10:12:45.603Z,10.11
2023-04-15T10:15:17.891Z,10.12
2023-04-15T10:17:48.304Z,10.12
2023-04-15T10:20:19.986Z,10.13
2023-04-15T10:22:50.205Z,10.13
2023-04-15T10:25:19.285Z,10.13
2023-04-15T10:27:49.883Z,10.13
2023-04-15T10:30:25.936Z,10.12
2023-04-15T10:32:55.587Z,10.12
2023-04-15T10:35:25.193Z,10.12
2023-04-15T10:37:56.374Z,10.14
2023-04-15T10:40:35.300Z,10.17
2023-04-15T10:43:03.927Z,10.19
2023-04-15T10:45:39.422Z,10.20
2023-04-15T10:48:09.209Z,10.22
2023-04-15T10:50:40.276Z,10.23
2023-04-15T10:53:11.299Z,10.24
2023-04-15T10:55:39.379Z,10.26
2023-04-15T10:58:10.524Z,10.29
2023-04-15T11:00:40.309Z,10.32
2023-04-15T11:03:10.114Z,10.35
2023-04-15T11:05:41.732Z,10.39
2023-04-15T11:08:12.950Z,10.43
2023-04-15T11:10:41.144Z,10.46
2023-04-15T11:13:12.039Z,10.50
2023-04-15T11:16:05.262Z,10.55
2023-04-15T11:18:34.808Z,10.60
2023-04-15T11:21:07.875Z,10.63
2023-04-15T11:23:39.920Z,10.67
2023-04-15T11:26:12.218Z,10.71
2023-04-15T11:28:42.898Z,10.73
2023-04-15T11:31:13.561Z,10.75
2023-04-15T11:33:56.664Z,10.78
2023-04-15T11:36:30.478Z,10.80
2023-04-15T11:38:59.778Z,10.82
2023-04-15T11:41:28.926Z,10.83
2023-04-15T11:43:56.914Z,10.86
2023-04-15T11:46:32.163Z,10.88
2023-04-15T11:49:01.778Z,10.90
2023-04-15T11:51:34.276Z,10.94
2023-04-15T11:54:03.001Z,10.99
2023-04-15T11:56:32.128Z,11.04
2023-04-15T11:59:00.335Z,11.07
2023-04-15T12:01:46.687Z,11.12
2023-04-15T12:04:25.362Z,11.16
2023-04-15T12:06:54.188Z,11.19
2023-04-15T12:09:22.326Z,11.21
2023-04-15T12:11:57.727Z,11.21
2023-04-15T12:14:31.278Z,11.22
2023-04-15T12:17:01.613Z,11.22
2023-04-15T12:19:43.355Z,11.21
2023-04-15T12:22:13.102Z,11.18
2023-04-15T12:24:52.516Z,11.16
2023-04-15T12:27:21.375Z,11.12
2023-04-15T12:29:49.813Z,11.09
2023-04-15T12:32:21.610Z,11.07
2023-04-15T12:34:52.390Z,11.04
2023-04-15T12:37:22.282Z,11.03
2023-04-15T12:39:51.660Z,11.04
2023-04-15T12:42:20.737Z,11.04
2023-04-15T12:44:48.707Z,11.04
2023-04-15T12:47:16.823Z,11.05
2023-04-15T12:49:45.868Z,11.06
2023-04-15T12:52:16.683Z,11.07
2023-04-15T12:54:44.938Z,11.07
2023-04-15T12:57:12.988Z,11.08
2023-04-15T12:59:41.197Z,11.08
2023-04-15T13:02:09.225Z,11.09
2023-04-15T13:04:37.587Z,11.11
2023-04-15T13:07:05.782Z,11.14
2023-04-15T13:09:34.141Z,11.17
2023-04-15T13:12:02.224Z,11.23
2023-04-15T13:14:31.263Z,11.28
2023-04-15T13:16:59.495Z,11.32
2023-04-15T13:19:27.919Z,11.38
2023-04-15T13:21:56.246Z,11.43
2023-04-15T13:24:24.232Z,11.49
2023-04-15T13:26:53.710Z,11.55
2023-04-15T13:29:22.328Z,11.60
2023-04-15T13:31:50.594Z,11.66
2023-04-15T13:34:18.957Z,11.71
2023-04-15T13:36:47.335Z,11.75
2023-04-15T13:39:15.489Z,11.78
2023-04-15T13:41:43.646Z,11.81
2023-04-15T13:44:12.785Z,11.82
2023-04-15T13:46:42.765Z,11.81
2023-04-15T13:49:10.947Z,11.80
2023-04-15T13:51:38.928Z,11.80
2023-04-15T13:54:07.155Z,11.80
2023-04-15T13:56:35.575Z,11.81
2023-04-15T13:59:03.853Z,11.82
2023-04-15T14:01:32.225Z,11.82
2023-04-15T14:04:00.569Z,11.82
2023-04-15T14:06:29.121Z,11.81
2023-04-15T14:08:57.370Z,11.79
2023-04-15T14:11:25.372Z,11.78
2023-04-15T14:13:56.068Z,11.78
2023-04-15T14:16:24.325Z,11.78
2023-04-15T14:18:52.666Z,11.80
2023-04-15T14:21:21.025Z,11.81
2023-04-15T14:23:49.055Z,11.82
2023-04-15T14:26:17.125Z,11.85
2023-04-15T14:28:45.266Z,11.88
2023-04-15T14:31:14.349Z,11.89
2023-04-15T14:33:45.018Z,11.91
2023-04-15T14:36:13.276Z,11.93
2023-04-15T14:38:41.492Z,11.95
2023-04-15T14:41:10.253Z,11.99
2023-04-15T14:43:39.434Z,12.02
2023-04-15T14:46:08.627Z,12.09
2023-04-15T14:48:37.173Z,12.17
2023-04-15T14:51:08.693Z,12.23
2023-04-15T14:53:36.714Z,12.26
2023-04-15T14:56:05.376Z,12.27
2023-04-15T14:58:33.610Z,12.26
2023-04-15T15:01:03.061Z,12.24
2023-04-15T15:03:34.084Z,12.23
2023-04-15T15:06:02.413Z,12.23
2023-04-15T15:08:30.593Z,12.25
2023-04-15T15:10:58.856Z,12.31
2023-04-15T15:13:26.948Z,12.38
2023-04-15T15:15:55.184Z,12.41
2023-04-15T15:18:25.721Z,12.44
2023-04-15T15:20:53.796Z,12.44
2023-04-15T15:23:21.724Z,12.44
2023-04-15T15:25:50.012Z,12.43
2023-04-15T15:28:18.302Z,12.40
2023-04-15T15:30:46.307Z,12.37
2023-04-15T15:33:14.376Z,12.34
2023-04-15T15:35:42.505Z,12.31
2023-04-15T15:38:12.237Z,12.30
2023-04-15T15:40:40.551Z,12.29
2023-04-15T15:43:09.020Z,12.27
2023-04-15T15:45:37.045Z,12.24
2023-04-15T15:48:06.026Z,12.22
2023-04-15T15:50:34.542Z,12.21
2023-04-15T15:53:02.560Z,12.20
2023-04-15T15:55:30.719Z,12.18
2023-04-15T15:57:58.651Z,12.15
2023-04-15T16:00:26.519Z,12.12
2023-04-15T16:05:28.588Z,12.09
2023-04-15T16:07:56.699Z,12.08
2023-04-15T16:10:24.754Z,12.08
2023-04-15T16:12:52.921Z,12.08
2023-04-15T16:15:23.940Z,12.06
2023-04-15T16:17:52.359Z,12.02
2023-04-15T16:20:20.718Z,12.00
2023-04-15T16:22:48.818Z,11.99
2023-04-15T16:25:16.943Z,11.99
2023-04-15T16:27:57.637Z,12.00
2023-04-15T16:30:27.470Z,12.01
2023-04-15T16:32:55.537Z,12.01
2023-04-15T16:35:23.484Z,12.01
2023-04-15T16:37:51.531Z,11.99
2023-04-15T16:40:19.744Z,11.97
2023-04-15T16:42:48.437Z,11.94
2023-04-15T16:45:20.006Z,11.90
2023-04-15T16:47:48.127Z,11.86
2023-04-15T16:50:19.011Z,11.82
2023-04-15T16:52:47.413Z,11.76
2023-04-15T16:55:15.869Z,11.71
2023-04-15T16:58:03.240Z,11.67
2023-04-15T17:00:33.237Z,11.63
2023-04-15T17:03:01.511Z,11.59
2023-04-15T17:05:31.969Z,11.53
2023-04-15T17:08:00.400Z,11.47
2023-04-15T17:10:28.310Z,11.42
2023-04-15T17:12:57.678Z,11.36
2023-04-15T17:15:26.700Z,11.31
2023-04-15T17:17:54.924Z,11.26
2023-04-15T17:20:23.100Z,11.21
2023-04-15T17:22:51.583Z,11.18
2023-04-15T17:25:19.656Z,11.15
2023-04-15T17:27:47.612Z,11.11
2023-04-15T17:30:16.009Z,11.07
2023-04-15T17:32:44.329Z,11.03
2023-04-15T17:35:12.455Z,10.99
2023-04-15T17:37:41.113Z,10.96
2023-04-15T17:40:09.516Z,10.93
2023-04-15T17:42:37.392Z,10.90
2023-04-15T17:45:07.502Z,10.87
2023-04-15T17:47:35.649Z,10.84
2023-04-15T17:50:03.853Z,10.81
2023-04-15T17:52:32.185Z,10.77
2023-04-15T17:55:00.391Z,10.73
2023-04-15T17:57:28.881Z,10.71
2023-04-15T17:59:57.647Z,10.68
2023-04-15T18:02:25.835Z,10.67
2023-04-15T18:04:54.236Z,10.65
2023-04-15T18:07:26.047Z,10.64
2023-04-15T18:09:56.068Z,10.63
2023-04-15T18:12:24.204Z,10.62
2023-04-15T18:14:52.971Z,10.61
2023-04-15T18:17:21.034Z,10.60
2023-04-15T18:19:49.144Z,10.59
2023-04-15T18:22:17.740Z,10.58
2023-04-15T18:24:45.878Z,10.57
2023-04-15T18:27:18.399Z,10.56
2023-04-15T18:29:47.464Z,10.54
2023-04-15T18:32:15.420Z,10.52
2023-04-15T18:34:43.647Z,10.50
2023-04-15T18:37:11.871Z,10.48
2023-04-15T18:39:39.916Z,10.45
2023-04-15T18:42:08.125Z,10.43
2023-04-15T18:44:36.126Z,10.40
2023-04-15T18:47:04.317Z,10.38
2023-04-15T18:49:33.413Z,10.35
2023-04-15T18:52:01.378Z,10.33
2023-04-15T18:54:30.753Z,10.31
2023-04-15T18:57:02.281Z,10.29
2023-04-15T18:59:31.978Z,10.26
2023-04-15T19:02:01.507Z,10.26
2023-04-15T19:04:29.978Z,10.24
2023-04-15T19:06:59.344Z,10.23
2023-04-15T19:09:28.973Z,10.21
2023-04-15T19:11:57.809Z,10.17
2023-04-15T19:14:25.996Z,10.15
2023-04-15T19:16:54.283Z,10.13
2023-04-15T19:19:22.558Z,10.11
2023-04-15T19:21:51.190Z,10.09
2023-04-15T19:24:20.126Z,10.06
2023-04-15T19:26:52.633Z,10.04
2023-04-15T19:29:22.036Z,10.02
2023-04-15T19:31:50.720Z,10.00
2023-04-15T19:34:18.716Z,9.97
2023-04-15T19:36:46.911Z,9.94
2023-04-15T19:39:14.842Z,9.92
2023-04-15T19:41:44.503Z,9.90
2023-04-15T19:44:13.849Z,9.88
2023-04-15T19:46:44.245Z,9.86
2023-04-15T19:49:12.537Z,9.85
2023-04-15T19:51:41.600Z,9.85
2023-04-15T19:54:09.483Z,9.85
2023-04-15T19:56:37.514Z,9.84
2023-04-15T19:59:06.039Z,9.83
2023-04-15T20:01:34.081Z,9.82
2023-04-15T20:04:04.206Z,9.81
2023-04-15T20:06:32.852Z,9.79
2023-04-15T20:09:01.132Z,9.78
2023-04-15T20:12:45.606Z,9.77
2023-04-15T20:14:17.937Z,9.76
2023-04-15T20:16:46.265Z,9.74
2023-04-15T20:19:14.749Z,9.73
2023-04-15T20:21:43.130Z,9.72
2023-04-15T20:24:11.243Z,9.71
2023-04-15T20:26:39.795Z,9.69
2023-04-15T20:29:08.906Z,9.66
2023-04-15T20:31:40.122Z,9.65
2023-04-15T20:34:10.658Z,9.64
2023-04-15T20:36:39.971Z,9.63
2023-04-15T20:39:08.141Z,9.62
2023-04-15T20:41:36.097Z,9.59
2023-04-15T20:44:04.301Z,9.57
2023-04-15T20:46:32.390Z,9.57
2023-04-15T20:49:01.012Z,9.55
2023-04-15T20:51:33.114Z,9.54
2023-04-15T20:54:01.439Z,9.53
2023-04-15T20:56:29.547Z,9.52
2023-04-15T20:58:57.743Z,9.51
2023-04-15T21:01:26.062Z,9.50
2023-04-15T21:03:54.174Z,9.48
2023-04-15T21:06:22.261Z,9.48
2023-04-15T21:08:52.602Z,9.46
2023-04-15T21:11:38.811Z,9.45
2023-04-15T21:14:09.371Z,9.44
2023-04-15T21:16:37.388Z,9.42
2023-04-15T21:19:05.723Z,9.40
2023-04-15T21:21:34.154Z,9.39
2023-04-15T21:24:02.370Z,9.37
2023-04-15T21:26:30.392Z,9.36
2023-04-15T21:28:58.606Z,9.35
2023-04-15T21:31:26.647Z,9.34
2023-04-15T21:33:54.565Z,9.33
2023-04-15T21:36:22.643Z,9.32
2023-04-15T21:38:50.753Z,9.31
2023-04-15T21:41:18.694Z,9.30
2023-04-15T21:43:47.243Z,9.29
2023-04-15T21:46:24.217Z,9.28
2023-04-15T21:48:53.701Z,9.27
2023-04-15T21:51:21.822Z,9.27
2023-04-15T21:53:49.674Z,9.25
2023-04-15T21:56:18.008Z,9.25
2023-04-15T21:58:46.303Z,9.23
2023-04-15T22:01:14.434Z,9.22
2023-04-15T22:03:42.799Z,9.20
2023-04-15T22:06:11.176Z,9.19
2023-04-15T22:08:52.562Z,9.18
2023-04-15T22:11:28.689Z,9.17
2023-04-15T22:13:57.870Z,9.16
2023-04-15T22:16:26.690Z,9.15
2023-04-15T22:18:55.734Z,9.14
2023-04-15T22:21:23.935Z,9.13
2023-04-15T22:24:38.792Z,9.13
2023-04-15T22:26:41.952Z,9.11
2023-04-15T22:29:10.741Z,9.10
2023-04-15T22:31:38.789Z,9.09
2023-04-15T22:34:06.908Z,9.09
2023-04-15T22:36:35.134Z,9.09
2023-04-15T22:39:03.175Z,9.08
2023-04-15T22:41:31.368Z,9.07
2023-04-15T22:43:59.521Z,9.07
2023-04-15T22:46:27.514Z,9.06
2023-04-15T22:48:55.909Z,9.05
2023-04-15T22:51:28.028Z,9.05
2023-04-15T22:53:56.577Z,9.05
2023-04-15T22:56:24.776Z,9.04
2023-04-15T22:58:52.736Z,9.04
2023-04-15T23:01:21.508Z,9.04
2023-04-15T23:03:56.304Z,9.04
2023-04-15T23:06:25.820Z,9.04
2023-04-15T23:08:54.322Z,9.04
2023-04-15T23:11:22.422Z,9.03
2023-04-15T23:13:50.919Z,9.03
2023-04-15T23:16:19.054Z,9.03
2023-04-15T23:18:47.012Z,9.02
2023-04-15T23:21:15.159Z,9.02
2023-04-15T23:23:43.169Z,9.02
2023-04-15T23:26:11.015Z,9.02
2023-04-15T23:28:39.157Z,9.03
2023-04-15T23:31:07.241Z,9.02
2023-04-15T23:33:35.208Z,9.02
2023-04-15T23:36:06.710Z,9.02
2023-04-15T23:38:35.456Z,9.03
2023-04-15T23:41:03.446Z,9.03
2023-04-15T23:43:31.687Z,9.03
2023-04-15T23:45:59.748Z,9.03
2023-04-15T23:48:27.679Z,9.03
2023-04-15T23:50:56.232Z,9.03
2023-04-15T23:53:24.322Z,9.03
2023-04-15T23:55:52.174Z,9.04
2023-04-15T23:58:20.443Z,9.03
